sensor_id;sensor_type;location;lat;lon;timestamp;pressure;altitude;pressure_sealevel;temperature;humidity
51067;BME280;37112;45.892;-123.962;2022-12-05T00:01:42;101213.90;;;4.88;73.74
51067;BME280;37112;45.892;-123.962;2022-12-05T00:03:57;101217.11;;;4.88;73.72
51067;BME280;37112;45.892;-123.962;2022-12-05T00:06:10;101218.77;;;4.86;73.82
51067;BME280;37112;45.892;-123.962;2022-12-05T00:08:23;101222.52;;;4.84;73.84
51067;BME280;37112;45.892;-123.962;2022-12-05T00:10:40;101222.92;;;4.83;73.85
51067;BME280;37112;45.892;-123.962;2022-12-05T00:12:53;101224.89;;;4.81;74.05
51067;BME280;37112;45.892;-123.962;2022-12-05T00:15:08;101227.48;;;4.79;74.11
51067;BME280;37112;45.892;-123.962;2022-12-05T00:17:22;101229.18;;;4.75;74.11
51067;BME280;37112;45.892;-123.962;2022-12-05T00:19:35;101227.70;;;4.71;74.34
51067;BME280;37112;45.892;-123.962;2022-12-05T00:21:49;101231.47;;;4.69;74.31
51067;BME280;37112;45.892;-123.962;2022-12-05T00:24:03;101234.20;;;4.67;74.36
51067;BME280;37112;45.892;-123.962;2022-12-05T00:26:17;101236.39;;;4.64;74.62
51067;BME280;37112;45.892;-123.962;2022-12-05T00:28:32;101235.80;;;4.62;74.61
51067;BME280;37112;45.892;-123.962;2022-12-05T00:30:46;101235.02;;;4.58;74.74
51067;BME280;37112;45.892;-123.962;2022-12-05T00:32:59;101242.02;;;4.55;75.04
51067;BME280;37112;45.892;-123.962;2022-12-05T00:35:12;101243.01;;;4.51;75.15
51067;BME280;37112;45.892;-123.962;2022-12-05T00:37:26;101242.77;;;4.48;75.26
51067;BME280;37112;45.892;-123.962;2022-12-05T00:39:39;101245.55;;;4.44;75.54
51067;BME280;37112;45.892;-123.962;2022-12-05T00:41:52;101243.36;;;4.41;75.71
51067;BME280;37112;45.892;-123.962;2022-12-05T00:44:06;101245.94;;;4.37;75.96
51067;BME280;37112;45.892;-123.962;2022-12-05T00:46:23;101244.83;;;4.34;76.19
51067;BME280;37112;45.892;-123.962;2022-12-05T00:48:37;101242.30;;;4.31;76.26
51067;BME280;37112;45.892;-123.962;2022-12-05T00:50:50;101245.36;;;4.29;76.57
51067;BME280;37112;45.892;-123.962;2022-12-05T00:53:11;101245.43;;;4.26;76.74
51067;BME280;37112;45.892;-123.962;2022-12-05T00:55:24;101246.16;;;4.25;76.89
51067;BME280;37112;45.892;-123.962;2022-12-05T00:57:38;101246.02;;;4.24;77.18
51067;BME280;37112;45.892;-123.962;2022-12-05T00:59:51;101249.27;;;4.23;77.33
51067;BME280;37112;45.892;-123.962;2022-12-05T01:02:05;101250.54;;;4.21;77.56
51067;BME280;37112;45.892;-123.962;2022-12-05T01:04:20;101250.73;;;4.19;77.61
51067;BME280;37112;45.892;-123.962;2022-12-05T01:06:34;101253.20;;;4.19;77.90
51067;BME280;37112;45.892;-123.962;2022-12-05T01:08:47;101253.20;;;4.19;78.09
51067;BME280;37112;45.892;-123.962;2022-12-05T01:11:01;101254.80;;;4.19;78.32
51067;BME280;37112;45.892;-123.962;2022-12-05T01:13:15;101255.83;;;4.20;78.52
51067;BME280;37112;45.892;-123.962;2022-12-05T01:15:29;101254.21;;;4.22;78.59
51067;BME280;37112;45.892;-123.962;2022-12-05T01:17:42;101256.45;;;4.23;78.82
51067;BME280;37112;45.892;-123.962;2022-12-05T01:19:56;101258.33;;;4.25;78.99
51067;BME280;37112;45.892;-123.962;2022-12-05T01:22:09;101260.95;;;4.25;79.16
51067;BME280;37112;45.892;-123.962;2022-12-05T01:24:23;101263.23;;;4.25;79.36
51067;BME280;37112;45.892;-123.962;2022-12-05T01:26:37;101264.35;;;4.23;79.32
51067;BME280;37112;45.892;-123.962;2022-12-05T01:28:51;101263.16;;;4.22;79.35
51067;BME280;37112;45.892;-123.962;2022-12-05T01:31:09;101263.39;;;4.20;79.59
51067;BME280;37112;45.892;-123.962;2022-12-05T01:33:26;101265.12;;;4.15;79.73
51067;BME280;37112;45.892;-123.962;2022-12-05T01:35:40;101266.46;;;4.11;79.72
51067;BME280;37112;45.892;-123.962;2022-12-05T01:37:54;101267.27;;;4.08;79.82
51067;BME280;37112;45.892;-123.962;2022-12-05T01:40:10;101265.40;;;4.07;80.06
51067;BME280;37112;45.892;-123.962;2022-12-05T01:42:23;101265.09;;;4.06;80.22
51067;BME280;37112;45.892;-123.962;2022-12-05T01:45:11;101262.88;;;4.03;80.17
51067;BME280;37112;45.892;-123.962;2022-12-05T01:47:29;101266.39;;;4.03;80.45
51067;BME280;37112;45.892;-123.962;2022-12-05T01:49:44;101268.77;;;4.01;80.42
51067;BME280;37112;45.892;-123.962;2022-12-05T01:52:00;101272.70;;;3.98;80.48
51067;BME280;37112;45.892;-123.962;2022-12-05T01:54:15;101270.43;;;3.98;80.69
51067;BME280;37112;45.892;-123.962;2022-12-05T01:56:29;101273.44;;;3.97;80.54
51067;BME280;37112;45.892;-123.962;2022-12-05T01:58:45;101277.17;;;3.95;80.99
51067;BME280;37112;45.892;-123.962;2022-12-05T02:00:59;101277.45;;;3.92;81.06
51067;BME280;37112;45.892;-123.962;2022-12-05T02:03:16;101277.19;;;3.89;81.08
51067;BME280;37112;45.892;-123.962;2022-12-05T02:05:32;101284.09;;;3.87;81.39
51067;BME280;37112;45.892;-123.962;2022-12-05T02:07:47;101283.89;;;3.88;81.53
51067;BME280;37112;45.892;-123.962;2022-12-05T02:10:00;101281.69;;;3.86;81.50
51067;BME280;37112;45.892;-123.962;2022-12-05T02:12:14;101282.39;;;3.86;81.47
51067;BME280;37112;45.892;-123.962;2022-12-05T02:14:34;101283.35;;;3.84;81.75
51067;BME280;37112;45.892;-123.962;2022-12-05T02:16:57;101280.96;;;3.81;81.72
51067;BME280;37112;45.892;-123.962;2022-12-05T02:19:36;101282.40;;;3.79;81.93
51067;BME280;37112;45.892;-123.962;2022-12-05T02:25:06;101282.50;;;3.77;82.19
51067;BME280;37112;45.892;-123.962;2022-12-05T02:27:38;101287.31;;;3.75;82.28
51067;BME280;37112;45.892;-123.962;2022-12-05T02:30:08;101286.43;;;3.75;82.44
51067;BME280;37112;45.892;-123.962;2022-12-05T02:32:30;101282.19;;;3.75;82.54
51067;BME280;37112;45.892;-123.962;2022-12-05T02:34:54;101284.14;;;3.75;82.67
51067;BME280;37112;45.892;-123.962;2022-12-05T02:37:13;101286.46;;;3.74;82.65
51067;BME280;37112;45.892;-123.962;2022-12-05T02:39:31;101284.84;;;3.75;82.82
51067;BME280;37112;45.892;-123.962;2022-12-05T02:41:51;101284.64;;;3.76;82.96
51067;BME280;37112;45.892;-123.962;2022-12-05T02:44:10;101281.83;;;3.76;83.74
51067;BME280;37112;45.892;-123.962;2022-12-05T02:46:28;101284.85;;;3.75;83.49
51067;BME280;37112;45.892;-123.962;2022-12-05T02:48:43;101289.38;;;3.76;83.59
51067;BME280;37112;45.892;-123.962;2022-12-05T02:51:00;101293.36;;;3.78;83.63
51067;BME280;37112;45.892;-123.962;2022-12-05T02:53:16;101294.73;;;3.79;83.74
51067;BME280;37112;45.892;-123.962;2022-12-05T02:55:32;101296.06;;;3.80;83.68
51067;BME280;37112;45.892;-123.962;2022-12-05T02:57:49;101297.83;;;3.81;83.87
51067;BME280;37112;45.892;-123.962;2022-12-05T03:00:05;101300.63;;;3.81;83.80
51067;BME280;37112;45.892;-123.962;2022-12-05T03:02:29;101296.77;;;3.81;83.88
51067;BME280;37112;45.892;-123.962;2022-12-05T03:04:43;101296.22;;;3.82;83.96
51067;BME280;37112;45.892;-123.962;2022-12-05T03:06:58;101295.11;;;3.84;83.98
51067;BME280;37112;45.892;-123.962;2022-12-05T03:09:15;101296.47;;;3.85;84.51
51067;BME280;37112;45.892;-123.962;2022-12-05T03:11:36;101298.02;;;3.86;84.38
51067;BME280;37112;45.892;-123.962;2022-12-05T03:13:53;101300.11;;;3.86;84.42
51067;BME280;37112;45.892;-123.962;2022-12-05T03:16:11;101300.28;;;3.86;84.54
51067;BME280;37112;45.892;-123.962;2022-12-05T03:18:27;101304.70;;;3.86;84.47
51067;BME280;37112;45.892;-123.962;2022-12-05T03:20:45;101303.66;;;3.85;84.43
51067;BME280;37112;45.892;-123.962;2022-12-05T03:23:04;101301.94;;;3.85;84.76
51067;BME280;37112;45.892;-123.962;2022-12-05T03:25:20;101305.46;;;3.84;84.64
51067;BME280;37112;45.892;-123.962;2022-12-05T03:27:42;101298.46;;;3.83;84.82
51067;BME280;37112;45.892;-123.962;2022-12-05T03:30:02;101293.77;;;3.82;84.93
51067;BME280;37112;45.892;-123.962;2022-12-05T03:32:20;101296.05;;;3.81;84.88
51067;BME280;37112;45.892;-123.962;2022-12-05T03:34:44;101291.84;;;3.82;85.03
51067;BME280;37112;45.892;-123.962;2022-12-05T03:37:06;101290.91;;;3.83;85.19
51067;BME280;37112;45.892;-123.962;2022-12-05T03:39:24;101287.20;;;3.84;85.30
51067;BME280;37112;45.892;-123.962;2022-12-05T03:41:42;101286.63;;;3.85;85.20
51067;BME280;37112;45.892;-123.962;2022-12-05T03:43:59;101288.48;;;3.87;85.34
51067;BME280;37112;45.892;-123.962;2022-12-05T03:46:21;101288.95;;;3.90;85.34
51067;BME280;37112;45.892;-123.962;2022-12-05T03:48:38;101286.98;;;3.91;85.40
51067;BME280;37112;45.892;-123.962;2022-12-05T03:50:55;101285.73;;;3.92;85.34
51067;BME280;37112;45.892;-123.962;2022-12-05T03:53:14;101288.16;;;3.92;85.53
51067;BME280;37112;45.892;-123.962;2022-12-05T03:55:32;101287.79;;;3.93;85.59
51067;BME280;37112;45.892;-123.962;2022-12-05T03:57:49;101287.58;;;3.94;85.69
51067;BME280;37112;45.892;-123.962;2022-12-05T04:00:08;101291.10;;;3.94;85.70
51067;BME280;37112;45.892;-123.962;2022-12-05T04:02:27;101291.27;;;3.94;85.70
51067;BME280;37112;45.892;-123.962;2022-12-05T04:04:49;101292.70;;;3.94;85.66
51067;BME280;37112;45.892;-123.962;2022-12-05T04:07:06;101293.92;;;3.94;85.73
51067;BME280;37112;45.892;-123.962;2022-12-05T04:09:25;101294.77;;;3.95;85.98
51067;BME280;37112;45.892;-123.962;2022-12-05T04:11:42;101296.33;;;3.95;86.08
51067;BME280;37112;45.892;-123.962;2022-12-05T04:14:01;101301.91;;;3.97;86.10
51067;BME280;37112;45.892;-123.962;2022-12-05T04:16:21;101302.58;;;3.98;86.29
51067;BME280;37112;45.892;-123.962;2022-12-05T04:18:59;101300.67;;;3.98;86.13
51067;BME280;37112;45.892;-123.962;2022-12-05T04:21:14;101303.48;;;3.98;86.35
51067;BME280;37112;45.892;-123.962;2022-12-05T04:23:47;101303.79;;;3.99;86.40
51067;BME280;37112;45.892;-123.962;2022-12-05T04:26:26;101302.19;;;3.99;86.60
51067;BME280;37112;45.892;-123.962;2022-12-05T04:28:42;101300.61;;;3.99;86.52
51067;BME280;37112;45.892;-123.962;2022-12-05T04:31:05;101305.10;;;4.01;86.74
51067;BME280;37112;45.892;-123.962;2022-12-05T04:33:26;101305.55;;;4.04;86.80
51067;BME280;37112;45.892;-123.962;2022-12-05T04:35:46;101304.96;;;4.06;86.89
51067;BME280;37112;45.892;-123.962;2022-12-05T04:38:06;101307.16;;;4.08;86.95
51067;BME280;37112;45.892;-123.962;2022-12-05T04:40:24;101302.52;;;4.10;87.00
51067;BME280;37112;45.892;-123.962;2022-12-05T04:42:39;101297.89;;;4.12;87.06
51067;BME280;37112;45.892;-123.962;2022-12-05T04:44:57;101301.39;;;4.14;87.02
51067;BME280;37112;45.892;-123.962;2022-12-05T04:47:14;101303.05;;;4.16;87.24
51067;BME280;37112;45.892;-123.962;2022-12-05T04:49:30;101300.70;;;4.18;87.29
51067;BME280;37112;45.892;-123.962;2022-12-05T04:51:46;101305.21;;;4.20;87.32
51067;BME280;37112;45.892;-123.962;2022-12-05T04:54:07;101302.36;;;4.22;87.37
51067;BME280;37112;45.892;-123.962;2022-12-05T04:56:26;101302.42;;;4.25;87.60
51067;BME280;37112;45.892;-123.962;2022-12-05T04:58:41;101302.88;;;4.27;87.54
51067;BME280;37112;45.892;-123.962;2022-12-05T05:00:58;101306.68;;;4.30;87.58
51067;BME280;37112;45.892;-123.962;2022-12-05T05:03:18;101307.11;;;4.32;87.64
51067;BME280;37112;45.892;-123.962;2022-12-05T05:05:35;101305.97;;;4.35;87.83
51067;BME280;37112;45.892;-123.962;2022-12-05T05:07:53;101309.73;;;4.39;87.84
51067;BME280;37112;45.892;-123.962;2022-12-05T05:10:09;101311.90;;;4.41;87.83
51067;BME280;37112;45.892;-123.962;2022-12-05T05:12:23;101307.30;;;4.42;87.86
51067;BME280;37112;45.892;-123.962;2022-12-05T05:14:37;101311.16;;;4.43;87.81
51067;BME280;37112;45.892;-123.962;2022-12-05T05:16:50;101307.09;;;4.43;87.97
51067;BME280;37112;45.892;-123.962;2022-12-05T05:19:03;101305.19;;;4.43;87.91
51067;BME280;37112;45.892;-123.962;2022-12-05T05:21:20;101315.63;;;4.46;88.11
51067;BME280;37112;45.892;-123.962;2022-12-05T05:23:35;101314.64;;;4.49;88.20
51067;BME280;37112;45.892;-123.962;2022-12-05T05:25:53;101313.01;;;4.51;88.08
51067;BME280;37112;45.892;-123.962;2022-12-05T05:28:07;101317.37;;;4.52;88.10
51067;BME280;37112;45.892;-123.962;2022-12-05T05:30:21;101315.36;;;4.54;88.12
51067;BME280;37112;45.892;-123.962;2022-12-05T05:32:36;101315.82;;;4.56;88.30
51067;BME280;37112;45.892;-123.962;2022-12-05T05:34:52;101309.95;;;4.58;88.43
51067;BME280;37112;45.892;-123.962;2022-12-05T05:37:08;101310.29;;;4.59;88.21
51067;BME280;37112;45.892;-123.962;2022-12-05T05:39:22;101308.49;;;4.60;88.35
51067;BME280;37112;45.892;-123.962;2022-12-05T05:41:37;101311.77;;;4.62;88.38
51067;BME280;37112;45.892;-123.962;2022-12-05T05:43:52;101311.00;;;4.64;88.33
51067;BME280;37112;45.892;-123.962;2022-12-05T05:46:07;101307.42;;;4.65;88.39
51067;BME280;37112;45.892;-123.962;2022-12-05T05:48:21;101307.74;;;4.66;88.35
51067;BME280;37112;45.892;-123.962;2022-12-05T05:50:34;101311.41;;;4.67;88.43
51067;BME280;37112;45.892;-123.962;2022-12-05T05:52:52;101308.73;;;4.68;88.46
51067;BME280;37112;45.892;-123.962;2022-12-05T05:55:08;101307.83;;;4.69;88.55
51067;BME280;37112;45.892;-123.962;2022-12-05T05:57:21;101305.13;;;4.71;88.64
51067;BME280;37112;45.892;-123.962;2022-12-05T05:59:35;101310.32;;;4.73;88.67
51067;BME280;37112;45.892;-123.962;2022-12-05T06:01:48;101313.80;;;4.74;88.76
51067;BME280;37112;45.892;-123.962;2022-12-05T06:04:02;101311.30;;;4.76;88.79
51067;BME280;37112;45.892;-123.962;2022-12-05T06:06:16;101314.80;;;4.77;88.79
51067;BME280;37112;45.892;-123.962;2022-12-05T06:08:30;101313.71;;;4.77;88.75
51067;BME280;37112;45.892;-123.962;2022-12-05T06:10:44;101313.35;;;4.78;88.71
51067;BME280;37112;45.892;-123.962;2022-12-05T06:12:58;101317.21;;;4.78;88.88
51067;BME280;37112;45.892;-123.962;2022-12-05T06:15:13;101316.98;;;4.80;88.87
51067;BME280;37112;45.892;-123.962;2022-12-05T06:17:27;101317.84;;;4.80;88.92
51067;BME280;37112;45.892;-123.962;2022-12-05T06:19:42;101315.88;;;4.81;89.04
51067;BME280;37112;45.892;-123.962;2022-12-05T06:21:55;101317.93;;;4.83;89.14
51067;BME280;37112;45.892;-123.962;2022-12-05T06:24:12;101320.66;;;4.85;89.25
51067;BME280;37112;45.892;-123.962;2022-12-05T06:26:25;101315.70;;;4.86;89.35
51067;BME280;37112;45.892;-123.962;2022-12-05T06:28:41;101321.95;;;4.88;89.43
51067;BME280;37112;45.892;-123.962;2022-12-05T06:30:55;101321.88;;;4.91;89.48
51067;BME280;37112;45.892;-123.962;2022-12-05T06:33:11;101323.91;;;4.93;89.44
51067;BME280;37112;45.892;-123.962;2022-12-05T06:35:25;101322.74;;;4.96;89.64
51067;BME280;37112;45.892;-123.962;2022-12-05T06:37:39;101326.02;;;4.98;89.80
51067;BME280;37112;45.892;-123.962;2022-12-05T06:39:54;101322.08;;;5.00;89.88
51067;BME280;37112;45.892;-123.962;2022-12-05T06:42:08;101320.34;;;5.04;90.19
51067;BME280;37112;45.892;-123.962;2022-12-05T06:44:21;101320.04;;;5.09;90.43
51067;BME280;37112;45.892;-123.962;2022-12-05T06:46:36;101322.50;;;5.13;90.65
51067;BME280;37112;45.892;-123.962;2022-12-05T06:48:50;101324.36;;;5.20;91.10
51067;BME280;37112;45.892;-123.962;2022-12-05T06:51:04;101326.10;;;5.31;92.00
51067;BME280;37112;45.892;-123.962;2022-12-05T06:53:18;101325.32;;;5.43;92.53
51067;BME280;37112;45.892;-123.962;2022-12-05T06:55:32;101324.65;;;5.56;93.05
51067;BME280;37112;45.892;-123.962;2022-12-05T06:57:45;101326.27;;;5.69;93.52
51067;BME280;37112;45.892;-123.962;2022-12-05T06:59:58;101328.96;;;5.82;93.74
51067;BME280;37112;45.892;-123.962;2022-12-05T07:02:25;101330.40;;;5.96;94.38
51067;BME280;37112;45.892;-123.962;2022-12-05T07:04:38;101331.84;;;6.08;94.66
51067;BME280;37112;45.892;-123.962;2022-12-05T07:06:52;101335.59;;;6.21;94.76
51067;BME280;37112;45.892;-123.962;2022-12-05T07:09:06;101336.56;;;6.32;94.75
51067;BME280;37112;45.892;-123.962;2022-12-05T07:11:20;101336.02;;;6.41;94.65
51067;BME280;37112;45.892;-123.962;2022-12-05T07:13:33;101340.96;;;6.50;94.43
51067;BME280;37112;45.892;-123.962;2022-12-05T07:15:47;101343.38;;;6.55;94.26
51067;BME280;37112;45.892;-123.962;2022-12-05T07:18:01;101345.27;;;6.60;94.24
51067;BME280;37112;45.892;-123.962;2022-12-05T07:20:14;101346.87;;;6.65;94.07
51067;BME280;37112;45.892;-123.962;2022-12-05T07:22:28;101346.14;;;6.69;94.10
51067;BME280;37112;45.892;-123.962;2022-12-05T07:24:41;101349.64;;;6.74;94.05
51067;BME280;37112;45.892;-123.962;2022-12-05T07:26:55;101350.33;;;6.79;94.14
51067;BME280;37112;45.892;-123.962;2022-12-05T07:29:08;101352.61;;;6.84;94.15
51067;BME280;37112;45.892;-123.962;2022-12-05T07:31:22;101350.54;;;6.87;94.02
51067;BME280;37112;45.892;-123.962;2022-12-05T07:33:37;101348.80;;;6.90;93.86
51067;BME280;37112;45.892;-123.962;2022-12-05T07:35:50;101349.27;;;6.92;93.73
51067;BME280;37112;45.892;-123.962;2022-12-05T07:38:04;101351.65;;;6.94;93.72
51067;BME280;37112;45.892;-123.962;2022-12-05T07:40:17;101347.46;;;6.96;93.62
51067;BME280;37112;45.892;-123.962;2022-12-05T07:42:31;101347.88;;;6.99;93.61
51067;BME280;37112;45.892;-123.962;2022-12-05T07:44:44;101349.93;;;7.01;93.48
51067;BME280;37112;45.892;-123.962;2022-12-05T07:46:57;101350.07;;;7.03;93.39
51067;BME280;37112;45.892;-123.962;2022-12-05T07:49:11;101354.58;;;7.04;93.34
51067;BME280;37112;45.892;-123.962;2022-12-05T07:51:25;101354.48;;;7.06;93.41
51067;BME280;37112;45.892;-123.962;2022-12-05T07:53:38;101356.19;;;7.07;93.33
51067;BME280;37112;45.892;-123.962;2022-12-05T07:55:54;101354.56;;;7.09;93.25
51067;BME280;37112;45.892;-123.962;2022-12-05T07:58:07;101351.67;;;7.10;93.24
51067;BME280;37112;45.892;-123.962;2022-12-05T08:00:22;101349.35;;;7.11;93.23
51067;BME280;37112;45.892;-123.962;2022-12-05T08:02:36;101345.43;;;7.11;93.13
51067;BME280;37112;45.892;-123.962;2022-12-05T08:04:49;101344.89;;;7.11;93.13
51067;BME280;37112;45.892;-123.962;2022-12-05T08:07:02;101343.10;;;7.12;93.10
51067;BME280;37112;45.892;-123.962;2022-12-05T08:09:16;101342.69;;;7.13;93.16
51067;BME280;37112;45.892;-123.962;2022-12-05T08:11:31;101341.05;;;7.14;93.13
51067;BME280;37112;45.892;-123.962;2022-12-05T08:13:46;101334.70;;;7.14;92.86
51067;BME280;37112;45.892;-123.962;2022-12-05T08:16:02;101335.55;;;7.15;92.88
51067;BME280;37112;45.892;-123.962;2022-12-05T08:18:15;101333.25;;;7.15;92.68
51067;BME280;37112;45.892;-123.962;2022-12-05T08:20:35;101329.52;;;7.16;92.72
51067;BME280;37112;45.892;-123.962;2022-12-05T08:22:49;101327.40;;;7.16;92.65
51067;BME280;37112;45.892;-123.962;2022-12-05T08:25:03;101326.67;;;7.16;92.65
51067;BME280;37112;45.892;-123.962;2022-12-05T08:27:16;101323.16;;;7.16;92.73
51067;BME280;37112;45.892;-123.962;2022-12-05T08:29:30;101324.89;;;7.17;92.69
51067;BME280;37112;45.892;-123.962;2022-12-05T08:31:44;101323.66;;;7.17;92.64
51067;BME280;37112;45.892;-123.962;2022-12-05T08:34:00;101323.30;;;7.17;92.72
51067;BME280;37112;45.892;-123.962;2022-12-05T08:36:14;101326.42;;;7.18;92.89
51067;BME280;37112;45.892;-123.962;2022-12-05T08:38:28;101326.10;;;7.21;93.00
51067;BME280;37112;45.892;-123.962;2022-12-05T08:40:41;101326.04;;;7.22;93.03
51067;BME280;37112;45.892;-123.962;2022-12-05T08:42:57;101323.88;;;7.24;92.99
51067;BME280;37112;45.892;-123.962;2022-12-05T08:45:12;101330.73;;;7.25;92.79
51067;BME280;37112;45.892;-123.962;2022-12-05T08:47:26;101326.43;;;7.26;92.74
51067;BME280;37112;45.892;-123.962;2022-12-05T08:49:41;101330.43;;;7.28;92.77
51067;BME280;37112;45.892;-123.962;2022-12-05T08:51:54;101325.42;;;7.29;92.83
51067;BME280;37112;45.892;-123.962;2022-12-05T08:54:08;101326.44;;;7.30;92.77
51067;BME280;37112;45.892;-123.962;2022-12-05T08:56:22;101329.38;;;7.31;92.90
51067;BME280;37112;45.892;-123.962;2022-12-05T08:58:36;101326.34;;;7.32;92.88
51067;BME280;37112;45.892;-123.962;2022-12-05T09:00:50;101324.58;;;7.32;92.64
51067;BME280;37112;45.892;-123.962;2022-12-05T09:03:03;101328.70;;;7.30;92.19
51067;BME280;37112;45.892;-123.962;2022-12-05T09:05:17;101325.21;;;7.25;91.57
51067;BME280;37112;45.892;-123.962;2022-12-05T09:07:37;101328.31;;;7.19;91.32
51067;BME280;37112;45.892;-123.962;2022-12-05T09:09:51;101327.11;;;7.14;91.25
51067;BME280;37112;45.892;-123.962;2022-12-05T09:12:04;101323.99;;;7.09;91.07
51067;BME280;37112;45.892;-123.962;2022-12-05T09:14:18;101325.84;;;7.03;90.83
51067;BME280;37112;45.892;-123.962;2022-12-05T09:16:33;101326.15;;;6.96;90.61
51067;BME280;37112;45.892;-123.962;2022-12-05T09:18:48;101328.82;;;6.91;90.63
51067;BME280;37112;45.892;-123.962;2022-12-05T09:21:06;101329.12;;;6.84;90.40
51067;BME280;37112;45.892;-123.962;2022-12-05T09:23:20;101326.40;;;6.77;90.20
51067;BME280;37112;45.892;-123.962;2022-12-05T09:25:33;101326.37;;;6.69;89.92
51067;BME280;37112;45.892;-123.962;2022-12-05T09:27:47;101326.27;;;6.64;90.10
51067;BME280;37112;45.892;-123.962;2022-12-05T09:30:00;101330.88;;;6.59;90.14
51067;BME280;37112;45.892;-123.962;2022-12-05T09:32:14;101328.59;;;6.55;90.26
51067;BME280;37112;45.892;-123.962;2022-12-05T09:34:27;101331.90;;;6.51;90.28
51067;BME280;37112;45.892;-123.962;2022-12-05T09:36:41;101327.77;;;6.48;90.49
51067;BME280;37112;45.892;-123.962;2022-12-05T09:38:55;101329.09;;;6.51;91.15
51067;BME280;37112;45.892;-123.962;2022-12-05T09:41:20;101334.32;;;6.52;91.22
51067;BME280;37112;45.892;-123.962;2022-12-05T09:44:02;101331.43;;;6.50;91.00
51067;BME280;37112;45.892;-123.962;2022-12-05T09:46:23;101331.53;;;6.47;90.90
51067;BME280;37112;45.892;-123.962;2022-12-05T09:48:44;101331.35;;;6.42;90.68
51067;BME280;37112;45.892;-123.962;2022-12-05T09:51:01;101329.89;;;6.40;90.68
51067;BME280;37112;45.892;-123.962;2022-12-05T09:53:21;101332.45;;;6.37;90.59
51067;BME280;37112;45.892;-123.962;2022-12-05T09:55:45;101335.34;;;6.35;90.88
51067;BME280;37112;45.892;-123.962;2022-12-05T09:58:02;101339.11;;;6.34;90.73
51067;BME280;37112;45.892;-123.962;2022-12-05T10:00:16;101336.39;;;6.32;90.96
51067;BME280;37112;45.892;-123.962;2022-12-05T10:02:34;101337.32;;;6.31;91.09
51067;BME280;37112;45.892;-123.962;2022-12-05T10:04:56;101341.39;;;6.30;91.23
51067;BME280;37112;45.892;-123.962;2022-12-05T10:07:16;101341.86;;;6.32;91.43
51067;BME280;37112;45.892;-123.962;2022-12-05T10:09:52;101338.70;;;6.31;91.38
51067;BME280;37112;45.892;-123.962;2022-12-05T10:12:13;101341.71;;;6.31;91.38
51067;BME280;37112;45.892;-123.962;2022-12-05T10:14:34;101345.61;;;6.31;91.56
51067;BME280;37112;45.892;-123.962;2022-12-05T10:16:55;101344.41;;;6.30;91.43
51067;BME280;37112;45.892;-123.962;2022-12-05T10:19:13;101346.02;;;6.29;91.48
51067;BME280;37112;45.892;-123.962;2022-12-05T10:21:32;101350.52;;;6.27;91.13
51067;BME280;37112;45.892;-123.962;2022-12-05T10:23:54;101353.67;;;6.23;90.88
51067;BME280;37112;45.892;-123.962;2022-12-05T10:26:09;101355.15;;;6.21;91.15
51067;BME280;37112;45.892;-123.962;2022-12-05T10:28:30;101354.31;;;6.20;91.18
51067;BME280;37112;45.892;-123.962;2022-12-05T10:30:46;101353.64;;;6.19;91.00
51067;BME280;37112;45.892;-123.962;2022-12-05T10:33:02;101352.52;;;6.16;90.92
51067;BME280;37112;45.892;-123.962;2022-12-05T10:35:20;101349.64;;;6.13;90.92
51067;BME280;37112;45.892;-123.962;2022-12-05T10:37:34;101348.58;;;6.09;90.52
51067;BME280;37112;45.892;-123.962;2022-12-05T10:39:49;101350.13;;;6.05;90.61
51067;BME280;37112;45.892;-123.962;2022-12-05T10:42:05;101346.03;;;6.01;90.53
51067;BME280;37112;45.892;-123.962;2022-12-05T10:44:19;101348.88;;;5.96;90.23
51067;BME280;37112;45.892;-123.962;2022-12-05T10:46:33;101350.60;;;5.93;90.27
51067;BME280;37112;45.892;-123.962;2022-12-05T10:48:46;101351.61;;;5.89;90.17
51067;BME280;37112;45.892;-123.962;2022-12-05T10:50:59;101351.59;;;5.84;90.14
51067;BME280;37112;45.892;-123.962;2022-12-05T10:53:16;101350.16;;;5.80;90.15
51067;BME280;37112;45.892;-123.962;2022-12-05T10:55:35;101350.77;;;5.78;90.51
51067;BME280;37112;45.892;-123.962;2022-12-05T10:58:08;101351.56;;;5.76;90.46
51067;BME280;37112;45.892;-123.962;2022-12-05T11:00:31;101349.17;;;5.74;90.41
51067;BME280;37112;45.892;-123.962;2022-12-05T11:02:45;101347.20;;;5.70;90.42
51067;BME280;37112;45.892;-123.962;2022-12-05T11:05:00;101352.23;;;5.68;90.63
51067;BME280;37112;45.892;-123.962;2022-12-05T11:07:25;101351.91;;;5.67;90.76
51067;BME280;37112;45.892;-123.962;2022-12-05T11:09:39;101358.70;;;5.64;90.54
51067;BME280;37112;45.892;-123.962;2022-12-05T11:12:14;101359.83;;;5.62;90.71
51067;BME280;37112;45.892;-123.962;2022-12-05T11:14:28;101363.62;;;5.59;90.54
51067;BME280;37112;45.892;-123.962;2022-12-05T11:16:50;101360.73;;;5.56;90.49
51067;BME280;37112;45.892;-123.962;2022-12-05T11:19:22;101366.48;;;5.54;90.26
51067;BME280;37112;45.892;-123.962;2022-12-05T11:21:43;101365.06;;;5.49;90.16
51067;BME280;37112;45.892;-123.962;2022-12-05T11:23:56;101366.44;;;5.45;90.03
51067;BME280;37112;45.892;-123.962;2022-12-05T11:26:37;101365.21;;;5.40;90.22
51067;BME280;37112;45.892;-123.962;2022-12-05T11:28:52;101364.15;;;5.35;90.07
51067;BME280;37112;45.892;-123.962;2022-12-05T11:31:18;101363.23;;;5.31;90.29
51067;BME280;37112;45.892;-123.962;2022-12-05T11:33:34;101361.87;;;5.30;90.56
51067;BME280;37112;45.892;-123.962;2022-12-05T11:35:48;101356.79;;;5.29;90.67
51067;BME280;37112;45.892;-123.962;2022-12-05T11:38:04;101354.77;;;5.26;90.59
51067;BME280;37112;45.892;-123.962;2022-12-05T11:40:21;101350.63;;;5.24;90.66